Airfield :
LOGIN :

Register | Disclaimer

   EN    FR    IT 

 










Legend :    VFR   Marginal VFR   IFR   Intensive IFR   Very Intensive IFR
Visi :
Ceiling :
>= 8 km
>= 3000ft
5 to 8 km
1000 to 3000 ft
1500m to 5 km
500 to 1000 ft
800 to 1500m
200 to 500 ft
< 800m
< 200 ft
Symbols :   Thunderstorms  Fog  Heavy snow  Heavy precipitations  Wind > 20 kt
SIGMETs :     Misc.  Thunderstorms  Icing  Turbulence  Mountain Waves  Volcanic Ashes







- Airport Elevation : 400 ft
- IATA code : BNX


LQBK - Banja Luka

CURRENT METAR :
  • 140400Z VRB02KT 2000 BR SCT002 M00/M00 Q1009 NOSIG

EXPIRED METARs :
  • 140330Z VRB02KT 0300 R17/0450D FG VV001 00/M00 Q1010 NOSIG
  • 140300Z 16004KT 0300 R17/0400D FG VV001 M00/M00 Q1010 NOSIG
  • 140230Z 17003KT 02050 R17/0275D FG VV001 00/M00 Q1011 NOSIG
  • 140200Z 17003KT 0200 R17/0325D FG VV001 00/00 Q1011 NOSIG
  • 140130Z 19002KT 0400 R17/0450D FG VV001 01/00 Q1012 NOSIG

TAF TAF LQBK
Valid from the 14 at 00:00 until the 15 at 00:00 UTC


132300Z 1400/1424 18004KT 3000 BR BKN010 TX13/1413Z TN00/1402Z
PROB40
TEMPO 1400/1405 0400 FZFG BKN003
BECMG 1404/1406 23014KT 9999 SCT045
PROB40
TEMPO 1406/1415 23015G30KT
No reported NOTAMs for that airfield.



MET'MAP, your aeronautical weather chart ! - Copyright ORBIFLY December 2007 - Disclaimer

ORBIFLY MET'MAP TEAM :

Programming & Development : Alexandra Zaïnal
Concept & Development : Baudouin d'Aumeries
Co-Development & Prog : Marc-Olivier Méhu
Technical & hardware support : Manuel Goepfert

Contact : metmap@orbifly.com




SOURCES & CREDITS :

   NOAA